sensor_id;sensor_type;location;lat;lon;timestamp;pressure;altitude;pressure_sealevel;temperature;humidity
82870;BME280;72645;47.136;15.420;2024-03-08T00:00:31;97159.22;;;4.62;67.50
82870;BME280;72645;47.136;15.420;2024-03-08T00:03:02;97158.72;;;4.61;67.47
82870;BME280;72645;47.136;15.420;2024-03-08T00:05:34;97159.58;;;4.59;67.56
82870;BME280;72645;47.136;15.420;2024-03-08T00:08:06;97161.77;;;4.57;67.50
82870;BME280;72645;47.136;15.420;2024-03-08T00:10:40;97162.23;;;4.55;67.60
82870;BME280;72645;47.136;15.420;2024-03-08T00:13:11;97160.59;;;4.54;67.82
82870;BME280;72645;47.136;15.420;2024-03-08T00:15:42;97158.00;;;4.51;67.84
82870;BME280;72645;47.136;15.420;2024-03-08T00:18:13;97155.77;;;4.48;67.82
82870;BME280;72645;47.136;15.420;2024-03-08T00:20:44;97151.50;;;4.44;67.82
82870;BME280;72645;47.136;15.420;2024-03-08T00:23:15;97155.12;;;4.41;67.80
82870;BME280;72645;47.136;15.420;2024-03-08T00:25:46;97153.58;;;4.38;68.05
82870;BME280;72645;47.136;15.420;2024-03-08T00:28:17;97156.54;;;4.38;68.17
82870;BME280;72645;47.136;15.420;2024-03-08T00:30:48;97152.71;;;4.38;68.15
82870;BME280;72645;47.136;15.420;2024-03-08T00:33:19;97157.40;;;4.38;68.23
82870;BME280;72645;47.136;15.420;2024-03-08T00:35:51;97157.27;;;4.35;68.22
82870;BME280;72645;47.136;15.420;2024-03-08T00:38:22;97152.60;;;4.34;68.27
82870;BME280;72645;47.136;15.420;2024-03-08T00:40:53;97153.96;;;4.37;68.30
82870;BME280;72645;47.136;15.420;2024-03-08T00:43:26;97151.79;;;4.42;68.32
82870;BME280;72645;47.136;15.420;2024-03-08T00:45:57;97152.33;;;4.44;68.22
82870;BME280;72645;47.136;15.420;2024-03-08T00:48:28;97151.34;;;4.44;68.39
82870;BME280;72645;47.136;15.420;2024-03-08T00:51:00;97149.95;;;4.41;68.62
82870;BME280;72645;47.136;15.420;2024-03-08T00:53:32;97145.73;;;4.36;68.55
82870;BME280;72645;47.136;15.420;2024-03-08T00:56:03;97149.48;;;4.29;68.89
82870;BME280;72645;47.136;15.420;2024-03-08T00:58:35;97143.52;;;4.22;68.86
82870;BME280;72645;47.136;15.420;2024-03-08T01:01:06;97139.85;;;4.19;68.95
82870;BME280;72645;47.136;15.420;2024-03-08T01:03:39;97139.65;;;4.20;69.09
82870;BME280;72645;47.136;15.420;2024-03-08T01:06:11;97136.88;;;4.22;68.93
82870;BME280;72645;47.136;15.420;2024-03-08T01:08:42;97138.21;;;4.26;68.97
82870;BME280;72645;47.136;15.420;2024-03-08T01:11:14;97138.54;;;4.24;69.12
82870;BME280;72645;47.136;15.420;2024-03-08T01:13:45;97133.98;;;4.24;68.87
82870;BME280;72645;47.136;15.420;2024-03-08T01:16:17;97130.75;;;4.23;69.04
82870;BME280;72645;47.136;15.420;2024-03-08T01:18:49;97132.96;;;4.21;68.91
82870;BME280;72645;47.136;15.420;2024-03-08T01:21:20;97135.20;;;4.19;68.93
82870;BME280;72645;47.136;15.420;2024-03-08T01:23:51;97133.02;;;4.15;68.93
82870;BME280;72645;47.136;15.420;2024-03-08T01:26:23;97129.49;;;4.10;68.90
82870;BME280;72645;47.136;15.420;2024-03-08T01:28:54;97130.61;;;4.09;68.88
82870;BME280;72645;47.136;15.420;2024-03-08T01:31:25;97130.38;;;4.07;68.94
82870;BME280;72645;47.136;15.420;2024-03-08T01:33:55;97127.38;;;4.02;69.01
82870;BME280;72645;47.136;15.420;2024-03-08T01:36:27;97126.89;;;4.02;69.13
82870;BME280;72645;47.136;15.420;2024-03-08T01:38:57;97122.04;;;4.02;69.09
82870;BME280;72645;47.136;15.420;2024-03-08T01:41:29;97117.98;;;4.00;69.06
82870;BME280;72645;47.136;15.420;2024-03-08T01:44:00;97116.40;;;3.98;69.05
82870;BME280;72645;47.136;15.420;2024-03-08T01:46:31;97112.35;;;3.99;69.07
82870;BME280;72645;47.136;15.420;2024-03-08T01:49:03;97112.48;;;3.97;69.14
82870;BME280;72645;47.136;15.420;2024-03-08T01:51:35;97110.08;;;3.96;69.12
82870;BME280;72645;47.136;15.420;2024-03-08T01:54:06;97110.11;;;3.96;69.10
82870;BME280;72645;47.136;15.420;2024-03-08T01:56:41;97110.37;;;3.95;69.11
82870;BME280;72645;47.136;15.420;2024-03-08T01:59:12;97112.69;;;3.94;69.04
82870;BME280;72645;47.136;15.420;2024-03-08T02:01:44;97110.65;;;3.90;69.21
82870;BME280;72645;47.136;15.420;2024-03-08T02:04:15;97110.14;;;3.87;69.36
82870;BME280;72645;47.136;15.420;2024-03-08T02:06:46;97110.03;;;3.89;69.14
82870;BME280;72645;47.136;15.420;2024-03-08T02:09:17;97110.70;;;3.89;69.04
82870;BME280;72645;47.136;15.420;2024-03-08T02:11:48;97113.86;;;3.86;69.22
82870;BME280;72645;47.136;15.420;2024-03-08T02:14:19;97112.26;;;3.83;69.18
82870;BME280;72645;47.136;15.420;2024-03-08T02:16:50;97109.15;;;3.80;69.20
82870;BME280;72645;47.136;15.420;2024-03-08T02:19:21;97107.90;;;3.75;68.90
82870;BME280;72645;47.136;15.420;2024-03-08T02:21:52;97110.73;;;3.71;68.95
82870;BME280;72645;47.136;15.420;2024-03-08T02:24:23;97108.94;;;3.67;69.02
82870;BME280;72645;47.136;15.420;2024-03-08T02:26:55;97108.77;;;3.67;69.11
82870;BME280;72645;47.136;15.420;2024-03-08T02:29:26;97111.52;;;3.64;69.08
82870;BME280;72645;47.136;15.420;2024-03-08T02:31:58;97113.36;;;3.59;69.38
82870;BME280;72645;47.136;15.420;2024-03-08T02:34:29;97111.13;;;3.59;69.32
82870;BME280;72645;47.136;15.420;2024-03-08T02:37:01;97109.23;;;3.62;69.23
82870;BME280;72645;47.136;15.420;2024-03-08T02:39:33;97109.45;;;3.61;69.29
82870;BME280;72645;47.136;15.420;2024-03-08T02:42:05;97107.31;;;3.56;69.69
82870;BME280;72645;47.136;15.420;2024-03-08T02:44:37;97110.34;;;3.52;69.81
82870;BME280;72645;47.136;15.420;2024-03-08T02:47:08;97106.22;;;3.49;70.00
82870;BME280;72645;47.136;15.420;2024-03-08T02:49:39;97105.23;;;3.48;70.05
82870;BME280;72645;47.136;15.420;2024-03-08T02:52:10;97102.67;;;3.47;69.96
82870;BME280;72645;47.136;15.420;2024-03-08T02:54:41;97102.86;;;3.47;70.00
82870;BME280;72645;47.136;15.420;2024-03-08T02:57:13;97101.16;;;3.50;69.92
82870;BME280;72645;47.136;15.420;2024-03-08T02:59:44;97104.36;;;3.54;69.70
82870;BME280;72645;47.136;15.420;2024-03-08T03:02:15;97103.33;;;3.56;69.68
82870;BME280;72645;47.136;15.420;2024-03-08T03:04:47;97102.03;;;3.61;69.53
82870;BME280;72645;47.136;15.420;2024-03-08T03:07:18;97103.33;;;3.59;69.81
82870;BME280;72645;47.136;15.420;2024-03-08T03:09:49;97100.91;;;3.56;69.80
82870;BME280;72645;47.136;15.420;2024-03-08T03:12:20;97100.02;;;3.54;69.92
82870;BME280;72645;47.136;15.420;2024-03-08T03:14:52;97102.51;;;3.53;70.41
82870;BME280;72645;47.136;15.420;2024-03-08T03:17:23;97102.84;;;3.53;70.40
82870;BME280;72645;47.136;15.420;2024-03-08T03:19:55;97101.83;;;3.55;70.23
82870;BME280;72645;47.136;15.420;2024-03-08T03:22:26;97101.72;;;3.57;70.20
82870;BME280;72645;47.136;15.420;2024-03-08T03:24:59;97102.95;;;3.57;70.10
82870;BME280;72645;47.136;15.420;2024-03-08T03:27:32;97105.23;;;3.59;70.01
82870;BME280;72645;47.136;15.420;2024-03-08T03:30:03;97102.30;;;3.62;69.97
82870;BME280;72645;47.136;15.420;2024-03-08T03:32:51;97101.20;;;3.66;69.93
82870;BME280;72645;47.136;15.420;2024-03-08T03:35:24;97101.80;;;3.70;69.87
82870;BME280;72645;47.136;15.420;2024-03-08T03:37:55;97099.73;;;3.73;69.77
82870;BME280;72645;47.136;15.420;2024-03-08T03:40:37;97105.00;;;3.75;69.79
82870;BME280;72645;47.136;15.420;2024-03-08T03:43:09;97102.46;;;3.74;70.04
82870;BME280;72645;47.136;15.420;2024-03-08T03:45:42;97099.25;;;3.73;70.00
82870;BME280;72645;47.136;15.420;2024-03-08T03:48:13;97100.71;;;3.71;70.04
82870;BME280;72645;47.136;15.420;2024-03-08T03:50:44;97103.71;;;3.70;70.19
82870;BME280;72645;47.136;15.420;2024-03-08T03:53:15;97103.70;;;3.71;69.96
82870;BME280;72645;47.136;15.420;2024-03-08T03:55:46;97102.13;;;3.71;69.90
82870;BME280;72645;47.136;15.420;2024-03-08T03:58:17;97102.23;;;3.69;70.08
82870;BME280;72645;47.136;15.420;2024-03-08T04:00:52;97104.54;;;3.71;69.85
82870;BME280;72645;47.136;15.420;2024-03-08T04:03:23;97104.77;;;3.75;69.77
82870;BME280;72645;47.136;15.420;2024-03-08T04:05:54;97102.43;;;3.80;69.64
82870;BME280;72645;47.136;15.420;2024-03-08T04:08:25;97102.11;;;3.85;69.57
82870;BME280;72645;47.136;15.420;2024-03-08T04:10:56;97105.03;;;3.88;69.47
82870;BME280;72645;47.136;15.420;2024-03-08T04:13:27;97107.83;;;3.91;69.45
82870;BME280;72645;47.136;15.420;2024-03-08T04:15:58;97107.72;;;3.90;69.47
82870;BME280;72645;47.136;15.420;2024-03-08T04:18:29;97110.16;;;3.87;69.37
82870;BME280;72645;47.136;15.420;2024-03-08T04:21:01;97110.31;;;3.84;69.39
82870;BME280;72645;47.136;15.420;2024-03-08T04:23:32;97110.74;;;3.80;69.28
82870;BME280;72645;47.136;15.420;2024-03-08T04:26:05;97108.82;;;3.74;69.66
82870;BME280;72645;47.136;15.420;2024-03-08T04:28:37;97106.33;;;3.70;69.65
82870;BME280;72645;47.136;15.420;2024-03-08T04:31:09;97110.10;;;3.68;69.57
82870;BME280;72645;47.136;15.420;2024-03-08T04:33:40;97108.02;;;3.71;69.67
82870;BME280;72645;47.136;15.420;2024-03-08T04:36:11;97106.69;;;3.73;69.60
82870;BME280;72645;47.136;15.420;2024-03-08T04:38:43;97110.10;;;3.76;69.57
82870;BME280;72645;47.136;15.420;2024-03-08T04:41:15;97113.55;;;3.79;69.58
82870;BME280;72645;47.136;15.420;2024-03-08T04:43:46;97111.61;;;3.80;69.46
82870;BME280;72645;47.136;15.420;2024-03-08T04:46:17;97110.14;;;3.79;69.48
82870;BME280;72645;47.136;15.420;2024-03-08T04:48:48;97113.41;;;3.73;69.55
82870;BME280;72645;47.136;15.420;2024-03-08T04:51:20;97116.59;;;3.66;69.48
82870;BME280;72645;47.136;15.420;2024-03-08T04:53:51;97113.93;;;3.59;69.61
82870;BME280;72645;47.136;15.420;2024-03-08T04:56:22;97110.30;;;3.50;69.62
82870;BME280;72645;47.136;15.420;2024-03-08T04:58:53;97111.52;;;3.41;69.90
82870;BME280;72645;47.136;15.420;2024-03-08T05:01:24;97112.17;;;3.33;69.98
82870;BME280;72645;47.136;15.420;2024-03-08T05:03:55;97109.38;;;3.27;70.08
82870;BME280;72645;47.136;15.420;2024-03-08T05:06:33;97107.14;;;3.28;70.04
82870;BME280;72645;47.136;15.420;2024-03-08T05:09:06;97104.27;;;3.29;70.10
82870;BME280;72645;47.136;15.420;2024-03-08T05:11:44;97101.28;;;3.33;69.98
82870;BME280;72645;47.136;15.420;2024-03-08T05:14:16;97099.90;;;3.38;70.12
82870;BME280;72645;47.136;15.420;2024-03-08T05:16:49;97102.64;;;3.42;69.90
82870;BME280;72645;47.136;15.420;2024-03-08T05:19:22;97096.36;;;3.40;69.98
82870;BME280;72645;47.136;15.420;2024-03-08T05:21:54;97094.61;;;3.40;70.01
82870;BME280;72645;47.136;15.420;2024-03-08T05:24:24;97100.86;;;3.43;69.80
82870;BME280;72645;47.136;15.420;2024-03-08T05:26:55;97102.23;;;3.43;69.78
82870;BME280;72645;47.136;15.420;2024-03-08T05:29:26;97103.13;;;3.40;69.54
82870;BME280;72645;47.136;15.420;2024-03-08T05:31:58;97106.52;;;3.35;69.55
82870;BME280;72645;47.136;15.420;2024-03-08T05:34:29;97105.57;;;3.31;69.75
82870;BME280;72645;47.136;15.420;2024-03-08T05:37:00;97104.45;;;3.26;69.74
82870;BME280;72645;47.136;15.420;2024-03-08T05:39:31;97112.76;;;3.20;70.02
82870;BME280;72645;47.136;15.420;2024-03-08T05:42:03;97108.59;;;3.15;70.05
82870;BME280;72645;47.136;15.420;2024-03-08T05:44:34;97115.76;;;3.16;70.15
82870;BME280;72645;47.136;15.420;2024-03-08T05:47:05;97118.89;;;3.22;70.01
82870;BME280;72645;47.136;15.420;2024-03-08T05:49:36;97121.04;;;3.29;70.08
82870;BME280;72645;47.136;15.420;2024-03-08T05:52:08;97117.30;;;3.37;70.06
82870;BME280;72645;47.136;15.420;2024-03-08T05:54:39;97121.26;;;3.43;69.97
82870;BME280;72645;47.136;15.420;2024-03-08T05:57:11;97124.85;;;3.47;70.01
82870;BME280;72645;47.136;15.420;2024-03-08T05:59:42;97127.30;;;3.46;69.91
82870;BME280;72645;47.136;15.420;2024-03-08T06:02:13;97128.94;;;3.45;70.05
82870;BME280;72645;47.136;15.420;2024-03-08T06:04:48;97129.98;;;3.45;69.98
82870;BME280;72645;47.136;15.420;2024-03-08T06:07:19;97129.51;;;3.44;69.97
82870;BME280;72645;47.136;15.420;2024-03-08T06:09:50;97128.30;;;3.44;70.04
82870;BME280;72645;47.136;15.420;2024-03-08T06:12:21;97132.61;;;3.42;70.24
82870;BME280;72645;47.136;15.420;2024-03-08T06:14:53;97127.66;;;3.43;70.32
82870;BME280;72645;47.136;15.420;2024-03-08T06:17:24;97127.73;;;3.51;70.13
82870;BME280;72645;47.136;15.420;2024-03-08T06:19:55;97131.42;;;3.61;70.29
82870;BME280;72645;47.136;15.420;2024-03-08T06:22:26;97128.79;;;3.74;70.17
82870;BME280;72645;47.136;15.420;2024-03-08T06:24:57;97127.20;;;3.86;69.95
82870;BME280;72645;47.136;15.420;2024-03-08T06:27:28;97121.08;;;3.92;69.52
82870;BME280;72645;47.136;15.420;2024-03-08T06:29:59;97120.52;;;3.96;69.48
82870;BME280;72645;47.136;15.420;2024-03-08T06:32:30;97121.35;;;3.96;69.52
82870;BME280;72645;47.136;15.420;2024-03-08T06:35:06;97120.81;;;3.93;69.28
82870;BME280;72645;47.136;15.420;2024-03-08T06:37:37;97120.61;;;3.95;69.12
82870;BME280;72645;47.136;15.420;2024-03-08T06:40:10;97126.16;;;3.97;68.99
82870;BME280;72645;47.136;15.420;2024-03-08T06:42:44;97125.89;;;3.98;69.04
82870;BME280;72645;47.136;15.420;2024-03-08T06:45:15;97127.97;;;4.01;68.87
82870;BME280;72645;47.136;15.420;2024-03-08T06:47:50;97128.59;;;3.97;68.88
82870;BME280;72645;47.136;15.420;2024-03-08T06:50:21;97130.28;;;3.92;68.91
82870;BME280;72645;47.136;15.420;2024-03-08T06:52:52;97134.23;;;3.87;69.06
82870;BME280;72645;47.136;15.420;2024-03-08T06:55:23;97135.15;;;3.86;69.00
82870;BME280;72645;47.136;15.420;2024-03-08T06:57:54;97131.86;;;3.88;69.02
82870;BME280;72645;47.136;15.420;2024-03-08T07:00:25;97133.92;;;3.95;68.98
82870;BME280;72645;47.136;15.420;2024-03-08T07:02:58;97138.36;;;4.04;69.00
82870;BME280;72645;47.136;15.420;2024-03-08T07:05:30;97142.90;;;4.15;68.91
82870;BME280;72645;47.136;15.420;2024-03-08T07:08:02;97143.56;;;4.24;69.02
82870;BME280;72645;47.136;15.420;2024-03-08T07:10:33;97140.23;;;4.33;68.86
82870;BME280;72645;47.136;15.420;2024-03-08T07:13:05;97140.31;;;4.43;68.69
82870;BME280;72645;47.136;15.420;2024-03-08T07:15:36;97137.47;;;4.52;68.72
82870;BME280;72645;47.136;15.420;2024-03-08T07:18:07;97136.91;;;4.61;68.59
82870;BME280;72645;47.136;15.420;2024-03-08T07:20:44;97139.80;;;4.70;68.35
82870;BME280;72645;47.136;15.420;2024-03-08T07:23:15;97137.94;;;4.80;68.43
82870;BME280;72645;47.136;15.420;2024-03-08T07:26:06;97130.03;;;4.89;67.65
82870;BME280;72645;47.136;15.420;2024-03-08T07:28:37;97130.38;;;4.95;67.31
82870;BME280;72645;47.136;15.420;2024-03-08T07:31:09;97131.70;;;5.04;67.22
82870;BME280;72645;47.136;15.420;2024-03-08T07:33:51;97130.26;;;5.26;73.25
82870;BME280;72645;47.136;15.420;2024-03-08T07:36:23;97127.77;;;5.73;74.43
82870;BME280;72645;47.136;15.420;2024-03-08T07:38:54;97127.02;;;5.93;67.77
82870;BME280;72645;47.136;15.420;2024-03-08T07:41:25;97128.73;;;6.03;66.03
82870;BME280;72645;47.136;15.420;2024-03-08T07:43:57;97129.67;;;6.07;65.21
82870;BME280;72645;47.136;15.420;2024-03-08T07:46:28;97130.55;;;6.12;64.08
82870;BME280;72645;47.136;15.420;2024-03-08T07:49:01;97126.18;;;6.20;63.04
82870;BME280;72645;47.136;15.420;2024-03-08T07:51:32;97130.26;;;6.23;62.60
82870;BME280;72645;47.136;15.420;2024-03-08T07:54:04;97127.74;;;6.29;63.52
82870;BME280;72645;47.136;15.420;2024-03-08T07:56:37;97132.67;;;6.48;70.81
82870;BME280;72645;47.136;15.420;2024-03-08T07:59:08;97132.02;;;6.77;67.86
82870;BME280;72645;47.136;15.420;2024-03-08T08:01:41;97131.64;;;6.82;63.67
82870;BME280;72645;47.136;15.420;2024-03-08T08:04:13;97128.29;;;6.85;62.51
82870;BME280;72645;47.136;15.420;2024-03-08T08:06:47;97125.86;;;6.82;61.53
82870;BME280;72645;47.136;15.420;2024-03-08T08:09:19;97133.92;;;6.74;61.35
82870;BME280;72645;47.136;15.420;2024-03-08T08:11:58;97133.13;;;6.64;61.44
82870;BME280;72645;47.136;15.420;2024-03-08T08:14:31;97135.67;;;6.55;60.52
82870;BME280;72645;47.136;15.420;2024-03-08T08:17:02;97141.42;;;6.42;60.38
82870;BME280;72645;47.136;15.420;2024-03-08T08:19:34;97140.01;;;6.26;60.26
82870;BME280;72645;47.136;15.420;2024-03-08T08:22:05;97137.05;;;6.11;60.59
82870;BME280;72645;47.136;15.420;2024-03-08T08:24:38;97137.86;;;5.99;61.14
82870;BME280;72645;47.136;15.420;2024-03-08T08:27:09;97140.57;;;5.87;61.18
82870;BME280;72645;47.136;15.420;2024-03-08T08:29:41;97143.34;;;5.74;61.31
82870;BME280;72645;47.136;15.420;2024-03-08T08:32:12;97139.38;;;5.61;62.02
82870;BME280;72645;47.136;15.420;2024-03-08T08:34:45;97145.77;;;5.51;62.70
82870;BME280;72645;47.136;15.420;2024-03-08T08:37:16;97146.08;;;5.44;63.74
82870;BME280;72645;47.136;15.420;2024-03-08T08:39:49;97142.77;;;5.33;64.64
82870;BME280;72645;47.136;15.420;2024-03-08T08:42:22;97142.66;;;5.27;65.13
82870;BME280;72645;47.136;15.420;2024-03-08T08:44:53;97143.24;;;5.29;65.12
82870;BME280;72645;47.136;15.420;2024-03-08T08:47:25;97145.27;;;5.35;65.36
82870;BME280;72645;47.136;15.420;2024-03-08T08:49:56;97150.00;;;5.40;65.38
82870;BME280;72645;47.136;15.420;2024-03-08T08:52:27;97153.09;;;5.43;65.37
82870;BME280;72645;47.136;15.420;2024-03-08T08:54:58;97150.19;;;5.42;65.39
82870;BME280;72645;47.136;15.420;2024-03-08T08:57:29;97149.86;;;5.42;65.02
82870;BME280;72645;47.136;15.420;2024-03-08T09:00:03;97146.92;;;5.44;65.13
82870;BME280;72645;47.136;15.420;2024-03-08T09:02:37;97147.27;;;5.52;64.98
82870;BME280;72645;47.136;15.420;2024-03-08T09:05:09;97144.48;;;5.65;64.60
82870;BME280;72645;47.136;15.420;2024-03-08T09:07:41;97139.98;;;5.83;64.62
82870;BME280;72645;47.136;15.420;2024-03-08T09:10:14;97141.56;;;6.03;64.52
82870;BME280;72645;47.136;15.420;2024-03-08T09:12:47;97141.48;;;6.29;63.70
82870;BME280;72645;47.136;15.420;2024-03-08T09:15:18;97142.80;;;6.50;62.35
82870;BME280;72645;47.136;15.420;2024-03-08T09:17:50;97145.38;;;6.70;61.98
82870;BME280;72645;47.136;15.420;2024-03-08T09:20:21;97141.53;;;6.87;61.00
82870;BME280;72645;47.136;15.420;2024-03-08T09:22:54;97137.02;;;6.99;59.90
82870;BME280;72645;47.136;15.420;2024-03-08T09:25:25;97141.50;;;7.20;60.52
82870;BME280;72645;47.136;15.420;2024-03-08T09:27:58;97137.73;;;7.34;59.19
82870;BME280;72645;47.136;15.420;2024-03-08T09:30:29;97131.46;;;7.53;59.03
82870;BME280;72645;47.136;15.420;2024-03-08T09:33:00;97130.73;;;7.76;57.34
82870;BME280;72645;47.136;15.420;2024-03-08T09:35:32;97129.19;;;7.89;56.61
82870;BME280;72645;47.136;15.420;2024-03-08T09:38:03;97130.17;;;7.97;56.35
82870;BME280;72645;47.136;15.420;2024-03-08T09:40:34;97127.00;;;7.93;56.25
82870;BME280;72645;47.136;15.420;2024-03-08T09:43:05;97124.92;;;7.95;56.55
82870;BME280;72645;47.136;15.420;2024-03-08T09:45:38;97121.56;;;7.93;55.40
82870;BME280;72645;47.136;15.420;2024-03-08T09:48:12;97122.05;;;8.03;55.63
82870;BME280;72645;47.136;15.420;2024-03-08T09:50:44;97121.71;;;8.21;55.10
82870;BME280;72645;47.136;15.420;2024-03-08T09:53:15;97121.70;;;8.20;54.18
82870;BME280;72645;47.136;15.420;2024-03-08T09:55:46;97117.38;;;8.20;54.41
82870;BME280;72645;47.136;15.420;2024-03-08T09:58:19;97113.45;;;8.33;53.45
82870;BME280;72645;47.136;15.420;2024-03-08T10:01:08;97114.70;;;8.23;51.20
82870;BME280;72645;47.136;15.420;2024-03-08T10:03:39;97116.34;;;8.09;52.06
82870;BME280;72645;47.136;15.420;2024-03-08T10:06:10;97117.06;;;8.02;52.00
82870;BME280;72645;47.136;15.420;2024-03-08T10:08:41;97115.50;;;7.90;52.23
82870;BME280;72645;47.136;15.420;2024-03-08T10:11:14;97120.83;;;7.92;52.23
82870;BME280;72645;47.136;15.420;2024-03-08T10:13:46;97121.82;;;7.95;51.94
82870;BME280;72645;47.136;15.420;2024-03-08T10:16:18;97120.60;;;7.90;51.96
82870;BME280;72645;47.136;15.420;2024-03-08T10:18:49;97120.39;;;7.86;52.42
82870;BME280;72645;47.136;15.420;2024-03-08T10:21:22;97122.22;;;7.85;52.15
82870;BME280;72645;47.136;15.420;2024-03-08T10:23:54;97117.77;;;7.75;51.95
82870;BME280;72645;47.136;15.420;2024-03-08T10:26:26;97117.77;;;7.70;51.87
82870;BME280;72645;47.136;15.420;2024-03-08T10:28:57;97119.75;;;7.81;61.13
82870;BME280;72645;47.136;15.420;2024-03-08T10:31:28;97121.70;;;8.36;61.70
82870;BME280;72645;47.136;15.420;2024-03-08T10:34:02;97118.83;;;8.79;53.95
82870;BME280;72645;47.136;15.420;2024-03-08T10:36:35;97115.47;;;9.14;52.92
82870;BME280;72645;47.136;15.420;2024-03-08T10:39:11;97111.98;;;9.50;51.78
82870;BME280;72645;47.136;15.420;2024-03-08T10:41:46;97109.02;;;9.77;50.51
82870;BME280;72645;47.136;15.420;2024-03-08T10:44:32;97117.06;;;9.95;47.88
82870;BME280;72645;47.136;15.420;2024-03-08T10:47:17;97112.39;;;10.05;46.84
82870;BME280;72645;47.136;15.420;2024-03-08T10:49:59;97111.46;;;10.06;47.34
82870;BME280;72645;47.136;15.420;2024-03-08T10:52:34;97113.77;;;10.12;46.91
82870;BME280;72645;47.136;15.420;2024-03-08T10:55:08;97112.52;;;9.99;44.87
82870;BME280;72645;47.136;15.420;2024-03-08T10:57:42;97109.89;;;9.75;45.79
82870;BME280;72645;47.136;15.420;2024-03-08T11:00:14;97115.42;;;9.55;44.73
82870;BME280;72645;47.136;15.420;2024-03-08T11:02:48;97112.09;;;9.32;45.62
82870;BME280;72645;47.136;15.420;2024-03-08T11:05:35;97111.56;;;9.13;45.12
82870;BME280;72645;47.136;15.420;2024-03-08T11:08:21;97108.45;;;9.11;46.09
82870;BME280;72645;47.136;15.420;2024-03-08T11:10:54;97105.80;;;9.32;46.67
82870;BME280;72645;47.136;15.420;2024-03-08T11:13:35;97101.48;;;9.60;47.42
82870;BME280;72645;47.136;15.420;2024-03-08T11:16:11;97096.27;;;9.76;46.17
82870;BME280;72645;47.136;15.420;2024-03-08T11:18:42;97098.23;;;9.86;45.40
82870;BME280;72645;47.136;15.420;2024-03-08T11:21:13;97089.82;;;9.78;45.67
82870;BME280;72645;47.136;15.420;2024-03-08T11:24:00;97088.66;;;9.69;45.94
82870;BME280;72645;47.136;15.420;2024-03-08T11:26:32;97088.42;;;9.56;45.69
82870;BME280;72645;47.136;15.420;2024-03-08T11:29:35;97086.73;;;9.38;46.37
82870;BME280;72645;47.136;15.420;2024-03-08T11:32:14;97083.28;;;9.29;46.37
82870;BME280;72645;47.136;15.420;2024-03-08T11:34:47;97079.63;;;9.23;46.52
82870;BME280;72645;47.136;15.420;2024-03-08T11:37:20;97081.11;;;9.16;46.59
82870;BME280;72645;47.136;15.420;2024-03-08T11:39:54;97077.74;;;9.02;46.26
82870;BME280;72645;47.136;15.420;2024-03-08T11:42:28;97077.98;;;8.90;46.90
82870;BME280;72645;47.136;15.420;2024-03-08T11:45:00;97075.71;;;8.82;46.90
82870;BME280;72645;47.136;15.420;2024-03-08T11:47:33;97070.28;;;8.73;47.37
82870;BME280;72645;47.136;15.420;2024-03-08T11:50:07;97065.89;;;8.72;47.65
82870;BME280;72645;47.136;15.420;2024-03-08T11:52:41;97059.88;;;8.75;47.95
82870;BME280;72645;47.136;15.420;2024-03-08T11:55:13;97055.33;;;8.85;47.97
82870;BME280;72645;47.136;15.420;2024-03-08T11:57:44;97049.36;;;9.01;47.96
82870;BME280;72645;47.136;15.420;2024-03-08T12:00:18;97048.63;;;9.05;46.88
82870;BME280;72645;47.136;15.420;2024-03-08T12:03:06;97047.43;;;9.28;47.13
82870;BME280;72645;47.136;15.420;2024-03-08T12:05:37;97046.66;;;9.60;46.36
82870;BME280;72645;47.136;15.420;2024-03-08T12:08:09;97042.51;;;9.75;46.08
82870;BME280;72645;47.136;15.420;2024-03-08T12:10:43;97038.79;;;9.80;46.49
82870;BME280;72645;47.136;15.420;2024-03-08T12:13:14;97041.69;;;9.77;46.04
82870;BME280;72645;47.136;15.420;2024-03-08T12:15:45;97038.13;;;9.65;45.69
82870;BME280;72645;47.136;15.420;2024-03-08T12:18:16;97031.85;;;9.47;44.94
82870;BME280;72645;47.136;15.420;2024-03-08T12:20:48;97031.98;;;9.27;45.08
82870;BME280;72645;47.136;15.420;2024-03-08T12:23:19;97030.41;;;9.08;45.56
82870;BME280;72645;47.136;15.420;2024-03-08T12:25:50;97028.12;;;8.98;45.89
82870;BME280;72645;47.136;15.420;2024-03-08T12:28:21;97029.40;;;8.91;45.97
82870;BME280;72645;47.136;15.420;2024-03-08T12:30:53;97026.05;;;8.93;46.03
82870;BME280;72645;47.136;15.420;2024-03-08T12:33:26;97025.02;;;8.84;45.90
82870;BME280;72645;47.136;15.420;2024-03-08T12:35:58;97020.49;;;8.69;46.16
82870;BME280;72645;47.136;15.420;2024-03-08T12:38:30;97020.54;;;8.51;46.56
82870;BME280;72645;47.136;15.420;2024-03-08T12:41:02;97018.42;;;8.37;46.60
82870;BME280;72645;47.136;15.420;2024-03-08T12:43:34;97014.32;;;8.25;47.15
82870;BME280;72645;47.136;15.420;2024-03-08T12:46:06;97010.48;;;8.18;47.79
82870;BME280;72645;47.136;15.420;2024-03-08T12:48:39;97013.55;;;8.10;47.29
82870;BME280;72645;47.136;15.420;2024-03-08T12:51:11;97011.21;;;8.00;47.58
82870;BME280;72645;47.136;15.420;2024-03-08T12:53:42;97007.18;;;7.91;48.19
82870;BME280;72645;47.136;15.420;2024-03-08T12:56:16;97010.00;;;7.91;48.36
82870;BME280;72645;47.136;15.420;2024-03-08T12:58:50;97006.63;;;7.98;48.46
82870;BME280;72645;47.136;15.420;2024-03-08T13:01:23;96996.27;;;8.10;48.15
82870;BME280;72645;47.136;15.420;2024-03-08T13:03:54;96989.58;;;8.09;48.08
82870;BME280;72645;47.136;15.420;2024-03-08T13:06:26;96992.23;;;8.08;48.37
82870;BME280;72645;47.136;15.420;2024-03-08T13:08:58;96989.85;;;7.99;48.15
82870;BME280;72645;47.136;15.420;2024-03-08T13:11:34;96993.09;;;7.93;48.88
82870;BME280;72645;47.136;15.420;2024-03-08T13:14:07;96988.19;;;7.89;49.40
82870;BME280;72645;47.136;15.420;2024-03-08T13:16:40;96984.67;;;7.85;49.39
82870;BME280;72645;47.136;15.420;2024-03-08T13:19:11;96985.46;;;7.82;49.50
82870;BME280;72645;47.136;15.420;2024-03-08T13:21:42;96986.80;;;7.74;49.52
82870;BME280;72645;47.136;15.420;2024-03-08T13:24:13;96987.70;;;7.62;49.17
82870;BME280;72645;47.136;15.420;2024-03-08T13:26:46;96984.91;;;7.53;49.47